Weather at Oseberg South Platform

Public forecast

Using degrees Celsius for public forecast. Weather courtesy of forecast.io.

Closest aviation weather report (METAR) to Oseberg South Platform

Closest report is Oseberg A Platform, 6.2 nm (11.4 km) N.

2024/05/19 07:50 (retrieved 23 minutes ago)

ENOA 190750Z 01015KT 9999 FEW015 10/06 Q1018 W///S3

Closest aviation forecast (TAF) to Oseberg South Platform

Closest forecast is Oseberg A Platform, 6.2 nm (11.4 km) N.

2024/05/19 06:36 (retrieved 2 hours ago)

TAF ENOA 190500Z 1906/2006 35015KT 9999 SCT020 BKN050 BECMG 1916/1918 01025KT